EW3836 Weather Reports


Display with metric or nautical units.
time (UTC)temp
F
wind
direction
speed
MPH
gust
MPH
rain 1hr
in
rain 24hr
in
rain mn
in
humidity
%
barometer
mb
20210927201523 66 330 1.0 8.0 0.00 0.00 0.00 49 1003.8
20210927200050 69 306 2.0 11.0 0.00 0.00 0.00 43 1003.7
20210927194535 69 242 1.0 8.0 0.00 0.00 0.00 43 1003.5
20210927193020 68 207 4.0 13.0 0.00 0.00 0.00 44 1003.7
20210927191523 67 236 3.0 10.0 0.00 0.00 0.00 47 1004.1
20210927190019 67 269 0.0 12.0 0.00 0.00 0.00 45 1004.4
20210927184529 67 301 0.0 0.0 0.00 0.00 0.00 43 1004.6
20210927183025 68 245 4.0 16.0 0.00 0.00 0.00 43 1004.7
20210927181554 68 218 6.0 15.0 0.00 0.00 0.00 43 1004.6
20210927180017 69 238 4.0 13.0 0.00 0.00 0.00 42 1004.7
20210927174507 68 254 0.0 1.0 0.00 0.00 0.00 43 1004.8
20210927173003 67 213 0.0 6.0 0.00 0.00 0.00 44 1004.9
20210927171501 66 209 0.0 0.0 0.00 0.00 0.00 46 1005.0
20210927170203 65 180 0.0 4.0 0.00 0.00 0.00 46 1005.2
20210927164642 65 206 0.0 0.0 0.00 0.00 0.00 47 1005.2
20210927163205 64 230 0.0 0.0 0.00 0.00 0.00 49 1005.4
20210927161853 64 139 0.0 6.0 0.00 0.00 0.00 47 1005.4
20210927160215 64 152 0.0 3.0 0.00 0.00 0.00 47 1005.5
20210927154650 64 246 0.0 3.0 0.00 0.00 0.00 47 1005.5
20210927153110 63 236 0.0 11.0 0.00 0.00 0.00 46 1005.6
20210927151713 64 201 2.0 17.0 0.00 0.00 0.00 46 1005.8
20210927150123 62 189 0.0 2.0 0.00 0.00 0.00 45 1005.6
20210927144631 62 134 0.0 0.0 0.00 0.00 0.00 44 1005.5
20210927143131 62 121 0.0 1.0 0.00 0.00 0.00 45 1005.5
20210927141652 61 163 0.0 0.0 0.00 0.00 0.00 45 1005.5
20210927140142 61 294 0.0 0.0 0.00 0.00 0.00 45 1005.6
20210927134627 60 93 0.0 0.0 0.00 0.00 0.00 46 1005.4
20210927133201 59 93 0.0 0.0 0.00 0.00 0.00 49 1005.1
20210927131549 59 93 0.0 0.0 0.00 0.00 0.00 48 1004.9
20210927130116 60 93 0.0 0.0 0.00 0.00 0.00 47 1005.0
20210927124559 61 123 0.0 0.0 0.00 0.00 0.00 45 1005.1
20210927123058 61 142 0.0 0.0 0.00 0.00 0.00 45 1005.4
20210927121626 61 186 0.0 0.0 0.00 0.00 0.00 44 1005.4
20210927120106 62 194 0.0 0.0 0.00 0.00 0.00 44 1005.5
20210927114606 62 170 0.0 0.0 0.00 0.00 0.00 44 1005.5
20210927113100 61 173 0.0 0.0 0.00 0.00 0.00 45 1005.7
20210927111612 61 155 0.0 2.0 0.00 0.00 0.00 46 1005.6
20210927110104 60 143 0.0 0.0 0.00 0.00 0.00 47 1005.6
20210927104604 60 136 0.0 0.0 0.00 0.00 0.00 47 1005.6
20210927103048 61 149 0.0 5.0 0.00 0.00 0.00 45 1005.6
20210927101537 62 115 0.0 0.0 0.00 0.00 0.00 45 1005.8
20210927100103 62 207 0.0 4.0 0.00 0.00 0.00 44 1005.8
20210927094559 63 246 0.0 4.0 0.00 0.00 0.00 44 1005.9
20210927093054 63 188 0.0 1.0 0.00 0.00 0.00 44 1005.9
20210927091609 63 188 0.0 0.0 0.00 0.00 0.00 43 1005.9
20210927090028 63 153 0.0 3.0 0.00 0.00 0.00 44 1005.9
20210927084521 63 147 0.0 0.0 0.00 0.00 0.00 44 1005.8
20210927083018 64 123 0.0 0.0 0.00 0.00 0.00 43 1005.7
20210927081516 64 242 0.0 6.0 0.00 0.00 0.00 42 1005.7
20210927080014 65 228 0.0 9.0 0.00 0.00 0.00 41 1005.7
20210927074526 64 174 1.0 11.0 0.00 0.00 0.00 42 1005.5
20210927073025 64 172 0.0 10.0 0.00 0.00 0.00 43 1005.5
20210927071517 64 140 0.0 5.0 0.00 0.00 0.00 43 1005.3
20210927070002 64 138 1.0 9.0 0.00 0.00 0.00 42 1005.1
20210927061721 63 142 0.0 5.0 0.00 0.00 0.00 45 1005.1
20210927060132 64 124 0.0 3.0 0.00 0.00 0.00 44 1005.1
20210927054707 65 146 0.0 5.0 0.00 0.00 0.00 42 1005.1
20210927053327 65 121 0.0 0.0 0.00 0.00 0.00 43 1004.9
20210927051642 63 121 0.0 0.0 0.00 0.00 0.00 46 1004.9
20210927050153 63 112 0.0 0.0 0.00 0.00 0.00 46 1004.7
20210927044701 63 111 0.0 2.0 0.00 0.00 0.00 47 1004.7
20210927043109 63 103 0.0 5.0 0.00 0.00 0.00 47 1004.5
20210927041710 63 111 0.0 0.0 0.00 0.00 0.00 47 1004.3
20210927040118 63 117 0.0 0.0 0.00 0.00 0.00 46 1004.3
20210927034636 63 107 0.0 0.0 0.00 0.00 0.00 46 1004.2
20210927033342 63 107 0.0 0.0 0.00 0.00 0.00 46 1004.0
20210927031631 64 107 0.0 0.0 0.00 0.00 0.00 44 1003.8
20210927030145 65 98 0.0 0.0 0.00 0.00 0.00 42 1004.0
20210927024654 65 5 0.0 0.0 0.00 0.00 0.00 42 1004.1
20210927023126 65 5 0.0 0.0 0.00 0.00 0.00 41 1004.0
20210927021623 65 5 0.0 0.0 0.00 0.00 0.00 41 1004.0
20210927020106 66 5 0.0 0.0 0.00 0.00 0.00 41 1004.0
20210927014657 68 5 0.0 0.0 0.00 0.00 0.00 39 1004.0
20210927013137 70 5 0.0 0.0 0.00 0.00 0.00 37 1004.0
20210927011606 72 5 0.0 0.0 0.00 0.00 0.00 35 1004.0
20210927010117 73 5 0.0 0.0 0.00 0.00 0.00 33 1004.0
20210927004658 74 5 0.0 0.0 0.00 0.00 0.00 34 1004.0
20210927003058 73 5 0.0 0.0 0.00 0.00 0.00 34 1004.2
20210927001552 72 314 0.0 4.0 0.00 0.00 0.00 36 1004.3
20210927000045 74 39 0.0 0.0 0.00 0.00 0.00 33 1004.3
20210926234608 74 360 0.0 0.0 0.00 0.00 0.00 34 1004.5
20210926233108 74 341 0.0 3.0 0.00 0.00 0.00 34 1004.5
20210926231549 74 286 0.0 3.0 0.00 0.00 0.00 34 1004.4
20210926230046 75 277 0.0 2.0 0.00 0.00 0.00 33 1004.6
20210926224535 74 20 0.0 2.0 0.00 0.00 0.00 35 1004.8
20210926223042 75 39 0.0 0.0 0.00 0.00 0.00 35 1004.9
20210926221527 75 5 0.0 1.0 0.00 0.00 0.00 34 1005.0
20210926220047 74 339 0.0 7.0 0.00 0.00 0.00 34 1005.1
20210926214528 73 304 0.0 1.0 0.00 0.00 0.00 32 1005.2
20210926213035 75 17 0.0 0.0 0.00 0.00 0.00 34 1005.5
20210926211541 73 5 0.0 12.0 0.00 0.00 0.00 33 1005.7
20210926210017 74 290 4.0 11.0 0.00 0.00 0.00 32 1005.8
20210926204530 73 288 1.0 9.0 0.00 0.00 0.00 32 1006.1
20210926203014 72 305 0.0 9.0 0.00 0.00 0.00 33 1006.3